createdAt,value
2022-11-03T00:01:35.631Z,13.43
2022-11-03T00:04:04.101Z,15.87
2022-11-03T00:06:34.138Z,13.37
2022-11-03T00:09:05.115Z,15.43
2022-11-03T00:11:34.718Z,19.43
2022-11-03T00:14:03.214Z,11.93
2022-11-03T00:16:31.966Z,13.77
2022-11-03T00:19:00.477Z,14.27
2022-11-03T00:21:28.940Z,17.17
2022-11-03T00:23:58.739Z,13.33
2022-11-03T00:26:27.781Z,14.30
2022-11-03T00:28:57.108Z,16.23
2022-11-03T00:31:27.395Z,12.23
2022-11-03T00:33:57.379Z,16.07
2022-11-03T00:36:26.903Z,11.07
2022-11-03T00:38:55.460Z,12.63
2022-11-03T00:41:26.432Z,13.90
2022-11-03T00:43:55.764Z,11.20
2022-11-03T00:46:27.180Z,14.50
2022-11-03T00:48:55.711Z,19.10
2022-11-03T00:51:27.925Z,14.27
2022-11-03T00:53:57.505Z,18.20
2022-11-03T00:56:28.840Z,16.03
2022-11-03T00:58:58.353Z,15.37
2022-11-03T01:01:27.631Z,12.47
2022-11-03T01:04:15.341Z,16.50
2022-11-03T01:06:54.468Z,13.30
2022-11-03T01:09:24.313Z,16.47
2022-11-03T01:11:58.212Z,13.57
2022-11-03T01:14:27.195Z,10.83
2022-11-03T01:16:55.893Z,13.63
2022-11-03T01:19:25.378Z,13.53
2022-11-03T01:21:54.078Z,14.80
2022-11-03T01:24:22.669Z,17.40
2022-11-03T01:26:51.211Z,14.63
2022-11-03T01:29:21.408Z,16.93
2022-11-03T01:31:50.193Z,13.50
2022-11-03T01:34:19.763Z,16.20
2022-11-03T01:36:48.987Z,14.60
2022-11-03T01:39:19.637Z,14.77
2022-11-03T01:41:49.704Z,16.30
2022-11-03T01:44:42.308Z,17.73
2022-11-03T01:47:19.924Z,18.83
2022-11-03T01:49:50.245Z,17.13
2022-11-03T01:52:23.614Z,16.77
2022-11-03T01:54:53.724Z,19.43
2022-11-03T01:57:24.361Z,18.77
2022-11-03T01:59:53.629Z,19.97
2022-11-03T02:02:28.244Z,17.00
2022-11-03T02:04:58.910Z,20.27
2022-11-03T02:07:30.493Z,17.83
2022-11-03T02:09:59.458Z,20.23
2022-11-03T02:12:28.008Z,16.07
2022-11-03T02:14:58.391Z,18.33
2022-11-03T02:17:29.415Z,19.83
2022-11-03T02:20:00.344Z,19.90
2022-11-03T02:22:38.473Z,16.60
2022-11-03T02:25:12.900Z,18.67
2022-11-03T02:27:43.166Z,18.73
2022-11-03T02:30:11.828Z,15.17
2022-11-03T02:32:43.708Z,17.03
2022-11-03T02:35:14.632Z,16.70
2022-11-03T02:37:45.368Z,16.37
2022-11-03T02:40:16.179Z,17.13
2022-11-03T02:42:56.800Z,19.10
2022-11-03T02:45:27.700Z,15.20
2022-11-03T02:47:57.400Z,15.20
2022-11-03T02:50:28.913Z,18.03
2022-11-03T02:52:57.622Z,15.13
2022-11-03T02:55:33.433Z,16.10
2022-11-03T02:58:07.236Z,16.60
2022-11-03T03:00:38.425Z,15.73
2022-11-03T03:03:09.156Z,15.63
2022-11-03T03:05:42.819Z,17.53
2022-11-03T03:08:13.096Z,14.17
2022-11-03T03:10:42.936Z,16.57
2022-11-03T03:13:15.580Z,15.97
2022-11-03T03:15:47.153Z,18.00
2022-11-03T03:18:21.793Z,14.60
2022-11-03T03:20:55.134Z,20.67
2022-11-03T03:23:30.347Z,14.37
2022-11-03T03:26:06.592Z,16.03
2022-11-03T03:28:44.303Z,12.80
2022-11-03T03:31:14.780Z,16.40
2022-11-03T03:33:47.815Z,19.97
2022-11-03T03:36:20.209Z,18.20
2022-11-03T03:38:52.879Z,18.33
2022-11-03T03:41:22.861Z,16.67
2022-11-03T03:43:53.702Z,19.47
2022-11-03T03:46:23.843Z,17.67
2022-11-03T03:48:53.763Z,15.23
2022-11-03T03:51:26.089Z,18.30
2022-11-03T03:53:55.388Z,16.13
2022-11-03T03:56:28.320Z,17.03
2022-11-03T03:58:59.628Z,19.10
2022-11-03T04:01:28.713Z,15.80
2022-11-03T04:03:57.802Z,13.53
2022-11-03T04:06:26.382Z,15.30
2022-11-03T04:08:55.129Z,17.07
2022-11-03T04:11:41.188Z,16.47
2022-11-03T04:14:29.758Z,16.07
2022-11-03T04:17:16.232Z,13.73
2022-11-03T04:20:02.409Z,17.80
2022-11-03T04:22:33.919Z,18.30
2022-11-03T04:25:03.291Z,21.00
2022-11-03T04:27:33.417Z,39.60
2022-11-03T04:30:11.751Z,51.73
2022-11-03T04:32:40.527Z,21.43
2022-11-03T04:35:17.338Z,37.70
2022-11-03T04:37:47.995Z,27.03
2022-11-03T04:40:18.504Z,32.57
2022-11-03T04:42:47.538Z,30.70
2022-11-03T04:45:22.558Z,27.30
2022-11-03T04:47:51.470Z,30.90
2022-11-03T04:50:20.979Z,33.77
2022-11-03T04:52:49.770Z,38.13
2022-11-03T04:55:19.953Z,62.83
2022-11-03T04:57:49.913Z,48.67
2022-11-03T05:00:34.735Z,44.10
2022-11-03T05:03:05.209Z,20.30
2022-11-03T05:06:06.730Z,45.83
2022-11-03T05:08:38.789Z,50.17
2022-11-03T05:11:15.426Z,31.50
2022-11-03T05:13:47.507Z,22.57
2022-11-03T05:16:20.850Z,37.67
2022-11-03T05:19:03.510Z,30.13
2022-11-03T05:24:40.979Z,23.07
2022-11-03T05:27:13.449Z,21.73
2022-11-03T05:29:42.499Z,26.60
2022-11-03T05:32:16.714Z,34.47
2022-11-03T05:34:46.193Z,36.40
2022-11-03T05:37:26.879Z,51.43
2022-11-03T05:40:19.880Z,42.67
2022-11-03T05:42:51.728Z,15.60
2022-11-03T05:45:26.588Z,27.50
2022-11-03T05:48:14.718Z,25.53
2022-11-03T05:51:08.674Z,16.17
2022-11-03T05:54:07.393Z,112.63
2022-11-03T05:57:04.648Z,105.53
2022-11-03T06:06:42.976Z,110.57
2022-11-03T06:10:25.588Z,136.17
2022-11-03T06:13:49.845Z,104.73
2022-11-03T06:35:15.860Z,30.40
2022-11-03T07:03:48.529Z,41.00
2022-11-03T07:10:26.477Z,57.37
2022-11-03T07:20:06.953Z,53.40
2022-11-03T07:30:03.255Z,167.37
2022-11-03T07:32:59.026Z,157.17
2022-11-03T07:39:13.385Z,52.93
2022-11-03T07:49:47.318Z,26.83
2022-11-03T08:02:42.029Z,64.70
2022-11-03T08:09:00.360Z,14.87
2022-11-03T08:18:58.051Z,11.23
2022-11-03T08:22:21.927Z,24.73
2022-11-03T08:25:17.054Z,11.00
2022-11-03T08:28:31.951Z,20.63
2022-11-03T08:39:22.138Z,19.60
2022-11-03T08:46:03.462Z,15.17
2022-11-03T08:53:03.112Z,9.63
2022-11-03T08:56:58.205Z,11.73
2022-11-03T09:03:52.988Z,23.77
2022-11-03T09:06:48.824Z,17.27
2022-11-03T09:13:04.735Z,25.33
2022-11-03T09:22:52.409Z,52.70
2022-11-03T09:25:57.786Z,14.77
2022-11-03T09:29:18.603Z,12.17
2022-11-03T09:32:53.996Z,18.10
2022-11-03T09:42:55.904Z,17.87
2022-11-03T09:46:09.631Z,19.07
2022-11-03T09:49:20.330Z,15.60
2022-11-03T09:59:10.013Z,17.30
2022-11-03T10:02:32.016Z,16.03
2022-11-03T10:05:31.317Z,16.00
2022-11-03T10:08:25.279Z,14.97
2022-11-03T10:11:03.078Z,16.13
2022-11-03T10:13:46.764Z,19.60
2022-11-03T10:16:20.712Z,16.63
2022-11-03T10:18:52.562Z,12.80
2022-11-03T10:24:27.246Z,11.33
2022-11-03T10:30:10.212Z,12.73
2022-11-03T10:32:41.758Z,11.13
2022-11-03T10:35:26.707Z,12.83
2022-11-03T10:38:00.385Z,10.13
2022-11-03T10:40:51.749Z,16.63
2022-11-03T10:43:22.189Z,16.43
2022-11-03T10:45:55.703Z,18.87
2022-11-03T10:48:27.041Z,16.73
2022-11-03T10:50:56.224Z,14.50
2022-11-03T10:53:35.345Z,15.10
2022-11-03T10:56:04.478Z,16.83
2022-11-03T10:58:38.454Z,14.60
2022-11-03T11:01:11.125Z,17.10
2022-11-03T11:03:42.133Z,14.43
2022-11-03T11:06:22.431Z,16.97
2022-11-03T11:08:59.679Z,15.20
2022-11-03T11:11:29.000Z,15.67
2022-11-03T11:14:28.399Z,13.00
2022-11-03T11:17:40.835Z,13.40
2022-11-03T11:20:40.250Z,14.17
2022-11-03T11:23:27.590Z,14.27
2022-11-03T11:26:10.750Z,12.40
2022-11-03T11:28:40.286Z,15.37
2022-11-03T11:31:29.980Z,14.80
2022-11-03T11:34:19.812Z,14.33
2022-11-03T11:37:11.581Z,18.90
2022-11-03T11:39:46.485Z,15.97
2022-11-03T11:42:18.854Z,15.77
2022-11-03T11:44:55.866Z,14.27
2022-11-03T11:47:30.798Z,14.37
2022-11-03T11:50:04.842Z,15.57
2022-11-03T11:52:35.280Z,14.90
2022-11-03T11:55:07.505Z,16.00
2022-11-03T11:57:36.917Z,13.47
2022-11-03T12:00:05.760Z,14.07
2022-11-03T12:02:43.439Z,17.23
2022-11-03T12:05:19.729Z,12.90
2022-11-03T12:07:53.079Z,16.27
2022-11-03T12:10:26.232Z,15.13
2022-11-03T12:12:56.482Z,16.53
2022-11-03T12:15:44.299Z,17.50
2022-11-03T12:18:38.097Z,20.03
2022-11-03T12:21:15.160Z,18.27
2022-11-03T12:23:55.428Z,18.97
2022-11-03T12:26:39.711Z,19.77
2022-11-03T12:29:10.528Z,15.63
2022-11-03T12:31:54.747Z,21.63
2022-11-03T12:34:23.445Z,24.13
2022-11-03T12:36:55.939Z,24.87
2022-11-03T12:42:21.178Z,26.00
2022-11-03T12:44:52.198Z,25.23
2022-11-03T12:47:21.033Z,26.77
2022-11-03T12:49:49.827Z,32.80
2022-11-03T12:52:18.230Z,33.50
2022-11-03T12:54:46.658Z,34.50
2022-11-03T12:57:15.045Z,32.37
2022-11-03T12:59:44.845Z,32.67
2022-11-03T13:02:13.322Z,36.63
2022-11-03T13:04:49.956Z,36.83
2022-11-03T13:07:25.651Z,38.63
2022-11-03T13:09:56.545Z,36.50
2022-11-03T13:12:35.451Z,40.90
2022-11-03T13:15:06.836Z,40.77
2022-11-03T13:17:59.263Z,37.50
2022-11-03T13:20:23.705Z,36.20
2022-11-03T13:22:52.331Z,35.73
2022-11-03T13:25:21.096Z,35.23
2022-11-03T13:27:53.764Z,37.17
2022-11-03T13:30:23.954Z,35.13
2022-11-03T13:32:52.435Z,35.37
2022-11-03T13:35:20.881Z,37.90
2022-11-03T13:37:51.476Z,35.43
2022-11-03T13:43:09.179Z,37.30
2022-11-03T13:45:39.187Z,36.77
2022-11-03T13:50:56.899Z,39.87
2022-11-03T13:56:20.845Z,82.50
2022-11-03T14:01:41.100Z,25.57
2022-11-03T14:06:58.758Z,29.07
2022-11-03T14:09:27.360Z,20.17
2022-11-03T14:12:13.310Z,26.07
2022-11-03T14:14:42.087Z,24.37
2022-11-03T14:17:12.342Z,26.20
2022-11-03T14:19:45.070Z,19.23
2022-11-03T14:22:17.551Z,28.77
2022-11-03T14:24:46.076Z,29.30
2022-11-03T14:27:16.084Z,19.60
2022-11-03T14:29:44.757Z,17.90
2022-11-03T14:32:14.702Z,28.40
2022-11-03T14:34:43.896Z,18.73
2022-11-03T14:37:13.028Z,18.93
2022-11-03T14:39:44.883Z,19.80
2022-11-03T14:42:15.998Z,16.53
2022-11-03T14:44:45.564Z,15.27
2022-11-03T14:47:17.660Z,19.37
2022-11-03T14:49:47.108Z,20.57
2022-11-03T14:52:16.767Z,19.27
2022-11-03T14:54:45.387Z,13.60
2022-11-03T14:57:13.949Z,16.77
2022-11-03T14:59:42.448Z,21.33
2022-11-03T15:02:11.938Z,20.93
2022-11-03T15:04:44.686Z,25.90
2022-11-03T15:07:13.110Z,20.43
2022-11-03T15:09:41.538Z,16.93
2022-11-03T15:12:10.069Z,16.70
2022-11-03T15:14:38.622Z,20.87
2022-11-03T15:17:07.029Z,21.90
2022-11-03T15:19:35.524Z,24.13
2022-11-03T15:22:05.481Z,19.87
2022-11-03T15:27:25.206Z,22.07
2022-11-03T15:29:53.693Z,18.87
2022-11-03T15:32:22.098Z,21.97
2022-11-03T15:34:50.598Z,23.40
2022-11-03T15:37:20.560Z,21.77
2022-11-03T15:39:49.300Z,19.73
2022-11-03T15:42:17.937Z,25.27
2022-11-03T15:44:46.497Z,21.20
2022-11-03T15:47:14.963Z,18.83
2022-11-03T15:49:43.711Z,24.73
2022-11-03T15:52:12.293Z,19.60
2022-11-03T15:54:42.802Z,23.70
2022-11-03T15:57:11.395Z,20.37
2022-11-03T15:59:40.568Z,21.43
2022-11-03T16:02:27.718Z,23.73
2022-11-03T16:04:57.478Z,19.27
2022-11-03T16:07:26.203Z,25.87
2022-11-03T16:09:56.650Z,26.27
2022-11-03T16:12:25.289Z,23.03
2022-11-03T16:14:54.037Z,20.03
2022-11-03T16:17:23.158Z,22.37
2022-11-03T16:19:51.783Z,20.73
2022-11-03T16:22:21.222Z,25.43
2022-11-03T16:24:49.647Z,22.53
2022-11-03T16:27:19.652Z,24.33
2022-11-03T16:29:48.206Z,27.33
2022-11-03T16:32:16.654Z,29.90
2022-11-03T16:34:46.818Z,26.93
2022-11-03T16:37:16.281Z,29.20
2022-11-03T16:39:44.688Z,22.30
2022-11-03T16:42:13.061Z,28.27
2022-11-03T16:44:43.247Z,23.60
2022-11-03T16:47:11.710Z,25.67
2022-11-03T16:49:41.844Z,24.30
2022-11-03T16:52:10.919Z,29.73
2022-11-03T16:54:42.331Z,26.37
2022-11-03T16:57:12.323Z,29.90
2022-11-03T16:59:40.786Z,27.63
2022-11-03T17:02:15.996Z,27.93
2022-11-03T17:04:44.954Z,28.30
2022-11-03T17:07:13.562Z,25.83
2022-11-03T17:09:42.201Z,23.13
2022-11-03T17:12:10.636Z,22.47
2022-11-03T17:14:39.452Z,23.60
2022-11-03T17:17:11.210Z,22.43
2022-11-03T17:19:39.680Z,27.07
2022-11-03T17:22:08.221Z,24.20
2022-11-03T17:24:39.513Z,22.43
2022-11-03T17:27:13.572Z,27.50
2022-11-03T17:29:43.951Z,25.07
2022-11-03T17:32:15.412Z,21.87
2022-11-03T17:34:43.793Z,23.70
2022-11-03T17:37:12.267Z,29.77
2022-11-03T17:39:41.538Z,27.73
2022-11-03T17:42:16.359Z,26.90
2022-11-03T17:44:45.079Z,23.07
2022-11-03T17:47:15.659Z,20.37
2022-11-03T17:49:44.250Z,26.00
2022-11-03T17:52:15.274Z,29.53
2022-11-03T17:54:43.816Z,27.67
2022-11-03T17:57:15.617Z,29.50
2022-11-03T17:59:44.199Z,24.67
2022-11-03T18:02:17.468Z,28.60
2022-11-03T18:04:46.173Z,17.60
2022-11-03T18:07:19.496Z,24.83
2022-11-03T18:09:48.059Z,20.77
2022-11-03T18:12:34.717Z,20.30
2022-11-03T18:15:04.141Z,20.57
2022-11-03T18:17:34.095Z,21.83
2022-11-03T18:20:02.527Z,18.40
2022-11-03T18:22:31.238Z,21.03
2022-11-03T18:24:59.675Z,21.50
2022-11-03T18:27:28.115Z,18.93
2022-11-03T18:29:56.628Z,21.37
2022-11-03T18:32:25.279Z,19.47
2022-11-03T18:34:55.373Z,19.13
2022-11-03T18:37:23.805Z,19.57
2022-11-03T18:39:52.954Z,21.80
2022-11-03T18:42:21.371Z,21.57
2022-11-03T18:44:49.959Z,29.00
2022-11-03T18:47:18.369Z,22.30
2022-11-03T18:49:47.829Z,20.57
2022-11-03T18:52:18.094Z,16.03
2022-11-03T18:54:47.505Z,18.10
2022-11-03T18:57:16.086Z,21.77
2022-11-03T18:59:45.567Z,20.03
2022-11-03T19:02:17.880Z,20.97
2022-11-03T19:04:46.417Z,21.43
2022-11-03T19:07:16.231Z,17.63
2022-11-03T19:09:46.213Z,25.33
2022-11-03T19:12:16.180Z,23.53
2022-11-03T19:14:46.068Z,19.17
2022-11-03T19:17:22.919Z,20.37
2022-11-03T19:19:53.372Z,19.10
2022-11-03T19:22:23.377Z,15.67
2022-11-03T19:24:53.597Z,19.33
2022-11-03T19:27:23.485Z,21.87
2022-11-03T19:29:51.984Z,17.60
2022-11-03T19:32:22.618Z,22.03
2022-11-03T19:34:53.530Z,23.40
2022-11-03T19:37:22.123Z,26.07
2022-11-03T19:39:50.660Z,26.73
2022-11-03T19:42:29.424Z,21.53
2022-11-03T19:44:58.316Z,24.03
2022-11-03T19:47:31.668Z,31.20
2022-11-03T19:50:02.387Z,30.00
2022-11-03T19:52:33.089Z,29.50
2022-11-03T19:55:05.590Z,29.03
2022-11-03T19:57:35.539Z,31.43
2022-11-03T20:00:03.993Z,32.47
2022-11-03T20:02:36.455Z,29.07
2022-11-03T20:05:05.136Z,34.40
2022-11-03T20:07:33.977Z,26.43
2022-11-03T20:10:03.591Z,28.67
2022-11-03T20:12:32.555Z,28.03
2022-11-03T20:15:02.677Z,27.13
2022-11-03T20:17:31.112Z,24.27
2022-11-03T20:19:59.629Z,24.97
2022-11-03T20:22:30.170Z,21.90
2022-11-03T20:25:00.870Z,24.73
2022-11-03T20:27:29.359Z,25.67
2022-11-03T20:29:57.884Z,28.07
2022-11-03T20:32:27.675Z,31.80
2022-11-03T20:34:56.147Z,29.40
2022-11-03T20:37:25.024Z,30.43
2022-11-03T20:39:53.508Z,28.37
2022-11-03T20:42:24.036Z,35.20
2022-11-03T20:44:52.618Z,27.13
2022-11-03T20:47:21.176Z,27.83
2022-11-03T20:49:50.962Z,25.93
2022-11-03T20:52:19.530Z,22.73
2022-11-03T20:54:48.103Z,24.57
2022-11-03T20:57:16.664Z,24.83
2022-11-03T20:59:45.157Z,25.50
2022-11-03T21:02:14.170Z,24.67
2022-11-03T21:04:43.414Z,28.60
2022-11-03T21:07:14.196Z,22.80
2022-11-03T21:09:42.771Z,36.00
2022-11-03T21:12:13.126Z,38.60
2022-11-03T21:15:03.107Z,23.97
2022-11-03T21:17:48.959Z,32.27
2022-11-03T21:20:17.458Z,24.40
2022-11-03T21:22:52.893Z,28.47
2022-11-03T21:25:23.295Z,25.30
2022-11-03T21:27:52.375Z,31.93
2022-11-03T21:30:21.496Z,30.37
2022-11-03T21:32:49.933Z,29.20
2022-11-03T21:35:19.660Z,34.33
2022-11-03T21:37:48.219Z,30.10
2022-11-03T21:40:20.542Z,23.77
2022-11-03T21:43:06.715Z,22.97
2022-11-03T21:45:35.998Z,35.93
2022-11-03T21:48:22.874Z,24.10
2022-11-03T21:50:51.877Z,26.67
2022-11-03T21:53:20.327Z,22.80
2022-11-03T21:55:50.765Z,25.50
2022-11-03T21:58:19.304Z,28.57
2022-11-03T22:00:47.741Z,24.10
2022-11-03T22:03:16.331Z,28.30
2022-11-03T22:05:44.894Z,27.40
2022-11-03T22:08:16.734Z,28.17
2022-11-03T22:10:45.140Z,25.07
2022-11-03T22:13:14.941Z,23.70
2022-11-03T22:16:01.169Z,24.97
2022-11-03T22:18:29.593Z,21.77
2022-11-03T22:21:16.756Z,26.17
2022-11-03T22:24:03.090Z,29.80
2022-11-03T22:26:48.971Z,28.67
2022-11-03T22:29:36.243Z,29.30
2022-11-03T22:32:06.151Z,25.63
2022-11-03T22:34:52.278Z,26.43
2022-11-03T22:37:20.819Z,25.50
2022-11-03T22:40:07.266Z,24.97
2022-11-03T22:42:53.236Z,24.93
2022-11-03T22:45:40.808Z,23.30
2022-11-03T22:48:09.255Z,18.80
2022-11-03T22:50:37.668Z,20.43
2022-11-03T22:53:26.110Z,19.57
2022-11-03T22:55:53.563Z,18.67
2022-11-03T22:58:25.348Z,17.50
2022-11-03T23:00:57.765Z,20.57
2022-11-03T23:03:26.251Z,18.10
2022-11-03T23:05:54.684Z,19.77
2022-11-03T23:08:23.149Z,24.27
2022-11-03T23:10:51.593Z,18.70
2022-11-03T23:13:19.998Z,20.00
2022-11-03T23:15:48.447Z,21.13
2022-11-03T23:18:36.060Z,20.30
2022-11-03T23:21:07.579Z,17.47
2022-11-03T23:23:53.815Z,18.93
2022-11-03T23:26:22.463Z,17.77
2022-11-03T23:28:50.932Z,18.47
2022-11-03T23:31:19.502Z,18.80
2022-11-03T23:33:49.501Z,20.33
2022-11-03T23:36:18.465Z,16.67
2022-11-03T23:38:47.196Z,17.63
2022-11-03T23:41:16.805Z,18.47
2022-11-03T23:43:45.867Z,16.23
2022-11-03T23:46:32.697Z,15.77
2022-11-03T23:49:02.650Z,15.47
2022-11-03T23:51:32.152Z,16.20
2022-11-03T23:54:01.375Z,20.50
2022-11-03T23:56:48.652Z,15.60
2022-11-03T23:59:17.968Z,15.47
